sensor_id;sensor_type;location;lat;lon;timestamp;pressure;altitude;pressure_sealevel;temperature;humidity
9774;BME280;4926;42.670;23.316;2023-01-28T00:00:55;93907.41;;;1.23;100.00
9774;BME280;4926;42.670;23.316;2023-01-28T00:03:24;93905.28;;;1.20;100.00
9774;BME280;4926;42.670;23.316;2023-01-28T00:06:00;93907.59;;;1.17;100.00
9774;BME280;4926;42.670;23.316;2023-01-28T00:08:27;93918.56;;;1.13;100.00
9774;BME280;4926;42.670;23.316;2023-01-28T00:10:57;93917.81;;;0.96;100.00
9774;BME280;4926;42.670;23.316;2023-01-28T00:13:24;93929.09;;;0.97;100.00
9774;BME280;4926;42.670;23.316;2023-01-28T00:15:54;93934.75;;;0.89;100.00
9774;BME280;4926;42.670;23.316;2023-01-28T00:18:20;93938.31;;;0.99;100.00
9774;BME280;4926;42.670;23.316;2023-01-28T00:20:56;93938.31;;;0.99;100.00
9774;BME280;4926;42.670;23.316;2023-01-28T00:23:26;93930.19;;;1.01;100.00
9774;BME280;4926;42.670;23.316;2023-01-28T00:25:56;93942.25;;;1.02;100.00
9774;BME280;4926;42.670;23.316;2023-01-28T00:28:23;93951.16;;;1.01;100.00
9774;BME280;4926;42.670;23.316;2023-01-28T00:30:49;93948.22;;;0.97;100.00
9774;BME280;4926;42.670;23.316;2023-01-28T00:33:16;93940.88;;;0.94;100.00
9774;BME280;4926;42.670;23.316;2023-01-28T00:35:43;93940.69;;;1.01;100.00
9774;BME280;4926;42.670;23.316;2023-01-28T00:38:11;93941.28;;;1.08;100.00
9774;BME280;4926;42.670;23.316;2023-01-28T00:40:38;93945.78;;;1.12;100.00
9774;BME280;4926;42.670;23.316;2023-01-28T00:43:04;93943.72;;;1.14;100.00
9774;BME280;4926;42.670;23.316;2023-01-28T00:45:31;93941.66;;;1.17;100.00
9774;BME280;4926;42.670;23.316;2023-01-28T00:48:03;93945.53;;;1.14;100.00
9774;BME280;4926;42.670;23.316;2023-01-28T00:50:31;93945.38;;;1.21;100.00
9774;BME280;4926;42.670;23.316;2023-01-28T00:52:57;93950.03;;;1.13;100.00
9774;BME280;4926;42.670;23.316;2023-01-28T00:55:26;93952.50;;;1.25;100.00
9774;BME280;4926;42.670;23.316;2023-01-28T00:57:53;93952.69;;;1.19;100.00
9774;BME280;4926;42.670;23.316;2023-01-28T01:00:22;93956.59;;;1.16;100.00
9774;BME280;4926;42.670;23.316;2023-01-28T01:05:33;93960.38;;;1.25;100.00
9774;BME280;4926;42.670;23.316;2023-01-28T01:08:02;93963.00;;;1.25;100.00
9774;BME280;4926;42.670;23.316;2023-01-28T01:10:30;93952.81;;;1.29;100.00
9774;BME280;4926;42.670;23.316;2023-01-28T01:12:57;93958.84;;;1.29;100.00
9774;BME280;4926;42.670;23.316;2023-01-28T01:15:23;93957.94;;;1.19;100.00
9774;BME280;4926;42.670;23.316;2023-01-28T01:17:50;93955.63;;;1.22;100.00
9774;BME280;4926;42.670;23.316;2023-01-28T01:20:19;93959.50;;;1.20;100.00
9774;BME280;4926;42.670;23.316;2023-01-28T01:22:46;93963.66;;;1.15;100.00
9774;BME280;4926;42.670;23.316;2023-01-28T01:25:15;93961.56;;;1.17;100.00
9774;BME280;4926;42.670;23.316;2023-01-28T01:27:44;93961.56;;;1.17;100.00
9774;BME280;4926;42.670;23.316;2023-01-28T01:30:13;93957.94;;;1.19;100.00
9774;BME280;4926;42.670;23.316;2023-01-28T01:32:40;93962.69;;;1.22;100.00
9774;BME280;4926;42.670;23.316;2023-01-28T01:35:09;93958.59;;;1.09;100.00
9774;BME280;4926;42.670;23.316;2023-01-28T01:37:36;93966.19;;;1.10;100.00
9774;BME280;4926;42.670;23.316;2023-01-28T01:40:04;93966.19;;;1.10;100.00
9774;BME280;4926;42.670;23.316;2023-01-28T01:42:31;93964.88;;;1.08;100.00
9774;BME280;4926;42.670;23.316;2023-01-28T01:45:06;93967.97;;;1.05;100.00
9774;BME280;4926;42.670;23.316;2023-01-28T01:47:38;93968.75;;;1.05;100.00
9774;BME280;4926;42.670;23.316;2023-01-28T01:50:10;93963.84;;;1.09;100.00
9774;BME280;4926;42.670;23.316;2023-01-28T01:52:40;93967.75;;;1.06;100.00
9774;BME280;4926;42.670;23.316;2023-01-28T01:55:11;93966.69;;;1.07;100.00
9774;BME280;4926;42.670;23.316;2023-01-28T01:57:40;93961.47;;;1.07;100.00
9774;BME280;4926;42.670;23.316;2023-01-28T02:00:10;93963.53;;;1.05;100.00
9774;BME280;4926;42.670;23.316;2023-01-28T02:02:40;93963.72;;;0.99;100.00
9774;BME280;4926;42.670;23.316;2023-01-28T02:05:08;93966.25;;;0.94;100.00
9774;BME280;4926;42.670;23.316;2023-01-28T02:07:35;93970.81;;;1.03;100.00
9774;BME280;4926;42.670;23.316;2023-01-28T02:10:03;93971.69;;;0.87;100.00
9774;BME280;4926;42.670;23.316;2023-01-28T02:12:33;93971.19;;;0.90;100.00
9774;BME280;4926;42.670;23.316;2023-01-28T02:15:04;93975.94;;;0.93;100.00
9774;BME280;4926;42.670;23.316;2023-01-28T02:17:33;93980.56;;;0.86;100.00
9774;BME280;4926;42.670;23.316;2023-01-28T02:20:04;93979.59;;;0.92;100.00
9774;BME280;4926;42.670;23.316;2023-01-28T02:28:26;93977.84;;;0.98;100.00
9774;BME280;4926;42.670;23.316;2023-01-28T02:31:02;93982.34;;;1.02;100.00
9774;BME280;4926;42.670;23.316;2023-01-28T02:33:34;93986.66;;;0.92;100.00
9774;BME280;4926;42.670;23.316;2023-01-28T02:36:14;93975.00;;;0.99;100.00
9774;BME280;4926;42.670;23.316;2023-01-28T02:38:47;93983.81;;;0.93;100.00
9774;BME280;4926;42.670;23.316;2023-01-28T02:41:20;93977.22;;;0.91;100.00
9774;BME280;4926;42.670;23.316;2023-01-28T02:43:49;93982.78;;;0.94;100.00
9774;BME280;4926;42.670;23.316;2023-01-28T02:46:20;93983.63;;;1.00;100.00
9774;BME280;4926;42.670;23.316;2023-01-28T02:49:07;93987.53;;;0.97;100.00
9774;BME280;4926;42.670;23.316;2023-01-28T02:51:56;93974.81;;;0.89;100.00
9774;BME280;4926;42.670;23.316;2023-01-28T02:54:35;93987.84;;;1.01;100.00
9774;BME280;4926;42.670;23.316;2023-01-28T02:57:12;93976.81;;;0.99;100.00
9774;BME280;4926;42.670;23.316;2023-01-28T02:59:59;93968.03;;;0.88;100.00
9774;BME280;4926;42.670;23.316;2023-01-28T03:02:35;93985.25;;;0.84;100.00
9774;BME280;4926;42.670;23.316;2023-01-28T03:05:08;93988.97;;;0.88;100.00
9774;BME280;4926;42.670;23.316;2023-01-28T03:07:39;93998.19;;;0.91;100.00
9774;BME280;4926;42.670;23.316;2023-01-28T03:10:11;93990.53;;;0.89;100.00
9774;BME280;4926;42.670;23.316;2023-01-28T03:12:42;93988.47;;;0.91;100.00
9774;BME280;4926;42.670;23.316;2023-01-28T03:15:30;93993.56;;;0.98;100.00
9774;BME280;4926;42.670;23.316;2023-01-28T03:18:19;93997.38;;;0.90;100.00
9774;BME280;4926;42.670;23.316;2023-01-28T03:21:09;93997.38;;;0.90;100.00
9774;BME280;4926;42.670;23.316;2023-01-28T03:23:57;93997.25;;;0.80;100.00
9774;BME280;4926;42.670;23.316;2023-01-28T03:26:46;94000.72;;;0.86;100.00
9774;BME280;4926;42.670;23.316;2023-01-28T03:29:37;93999.88;;;0.80;100.00
9774;BME280;4926;42.670;23.316;2023-01-28T03:32:24;93996.94;;;0.77;100.00
9774;BME280;4926;42.670;23.316;2023-01-28T03:35:09;94006.50;;;0.88;100.00
9774;BME280;4926;42.670;23.316;2023-01-28T03:37:56;94006.94;;;0.80;100.00
9774;BME280;4926;42.670;23.316;2023-01-28T03:40:25;94007.25;;;0.83;100.00
9774;BME280;4926;42.670;23.316;2023-01-28T03:42:51;94007.25;;;0.83;100.00
9774;BME280;4926;42.670;23.316;2023-01-28T03:45:21;94010.19;;;0.87;100.00
9774;BME280;4926;42.670;23.316;2023-01-28T03:47:49;94005.81;;;0.92;100.00
9774;BME280;4926;42.670;23.316;2023-01-28T03:50:15;94013.59;;;0.87;100.00
9774;BME280;4926;42.670;23.316;2023-01-28T03:52:42;94019.28;;;0.84;100.00
9774;BME280;4926;42.670;23.316;2023-01-28T03:55:11;94018.03;;;0.87;100.00
9774;BME280;4926;42.670;23.316;2023-01-28T03:57:46;94022.22;;;0.88;100.00
9774;BME280;4926;42.670;23.316;2023-01-28T04:00:14;94016.28;;;0.92;100.00
9774;BME280;4926;42.670;23.316;2023-01-28T04:02:42;94017.06;;;0.93;100.00
9774;BME280;4926;42.670;23.316;2023-01-28T04:05:14;94009.94;;;0.88;100.00
9774;BME280;4926;42.670;23.316;2023-01-28T04:07:44;94020.34;;;0.83;100.00
9774;BME280;4926;42.670;23.316;2023-01-28T04:10:13;94019.84;;;0.86;100.00
9774;BME280;4926;42.670;23.316;2023-01-28T04:12:40;94025.41;;;0.90;100.00
9774;BME280;4926;42.670;23.316;2023-01-28T04:15:09;94027.31;;;0.94;100.00
9774;BME280;4926;42.670;23.316;2023-01-28T04:17:45;94029.31;;;0.87;100.00
9774;BME280;4926;42.670;23.316;2023-01-28T04:20:15;94042.47;;;0.92;100.00
9774;BME280;4926;42.670;23.316;2023-01-28T04:22:46;94038.69;;;0.83;100.00
9774;BME280;4926;42.670;23.316;2023-01-28T04:25:19;94031.84;;;0.82;100.00
9774;BME280;4926;42.670;23.316;2023-01-28T04:27:46;94033.81;;;0.75;100.00
9774;BME280;4926;42.670;23.316;2023-01-28T04:30:15;94047.78;;;0.81;100.00
9774;BME280;4926;42.670;23.316;2023-01-28T04:32:44;94039.94;;;0.81;100.00
9774;BME280;4926;42.670;23.316;2023-01-28T04:35:14;94034.56;;;0.87;100.00
9774;BME280;4926;42.670;23.316;2023-01-28T04:37:47;94031.75;;;0.77;100.00
9774;BME280;4926;42.670;23.316;2023-01-28T04:40:14;94049.94;;;0.67;100.00
9774;BME280;4926;42.670;23.316;2023-01-28T04:42:40;94053.59;;;0.66;100.00
9774;BME280;4926;42.670;23.316;2023-01-28T04:45:08;94056.63;;;0.75;100.00
9774;BME280;4926;42.670;23.316;2023-01-28T04:47:34;94059.38;;;0.68;100.00
9774;BME280;4926;42.670;23.316;2023-01-28T04:50:01;94062.47;;;0.65;100.00
9774;BME280;4926;42.670;23.316;2023-01-28T04:52:29;94066.59;;;0.61;100.00
9774;BME280;4926;42.670;23.316;2023-01-28T04:54:59;94063.84;;;0.68;100.00
9774;BME280;4926;42.670;23.316;2023-01-28T04:57:32;94057.09;;;0.55;100.00
9774;BME280;4926;42.670;23.316;2023-01-28T04:59:59;94069.78;;;0.63;100.00
9774;BME280;4926;42.670;23.316;2023-01-28T05:02:25;94067.41;;;0.62;100.00
9774;BME280;4926;42.670;23.316;2023-01-28T05:04:55;94068.75;;;0.64;100.00
9774;BME280;4926;42.670;23.316;2023-01-28T05:07:21;94070.91;;;0.67;100.00
9774;BME280;4926;42.670;23.316;2023-01-28T05:09:50;94082.31;;;0.61;100.00
9774;BME280;4926;42.670;23.316;2023-01-28T05:12:21;94072.97;;;0.65;100.00
9774;BME280;4926;42.670;23.316;2023-01-28T05:14:48;94084.56;;;0.69;100.00
9774;BME280;4926;42.670;23.316;2023-01-28T05:17:20;94079.78;;;0.66;100.00
9774;BME280;4926;42.670;23.316;2023-01-28T05:19:47;94081.63;;;0.66;100.00
9774;BME280;4926;42.670;23.316;2023-01-28T05:22:13;94083.19;;;0.67;100.00
9774;BME280;4926;42.670;23.316;2023-01-28T05:24:40;94095.19;;;0.79;100.00
9774;BME280;4926;42.670;23.316;2023-01-28T05:27:07;94090.34;;;0.71;100.00
9774;BME280;4926;42.670;23.316;2023-01-28T05:29:35;94092.72;;;0.73;100.00
9774;BME280;4926;42.670;23.316;2023-01-28T05:32:04;94102.47;;;0.77;100.00
9774;BME280;4926;42.670;23.316;2023-01-28T05:34:31;94093.22;;;0.70;100.00
9774;BME280;4926;42.670;23.316;2023-01-28T05:36:57;94089.63;;;0.59;100.00
9774;BME280;4926;42.670;23.316;2023-01-28T05:39:26;94098.22;;;0.71;100.00
9774;BME280;4926;42.670;23.316;2023-01-28T05:41:56;94109.31;;;0.78;100.00
9774;BME280;4926;42.670;23.316;2023-01-28T05:44:23;94109.13;;;0.68;100.00
9774;BME280;4926;42.670;23.316;2023-01-28T05:46:54;94105.56;;;0.74;100.00
9774;BME280;4926;42.670;23.316;2023-01-28T05:49:23;94106.06;;;0.71;100.00
9774;BME280;4926;42.670;23.316;2023-01-28T05:51:50;94105.97;;;0.66;100.00
9774;BME280;4926;42.670;23.316;2023-01-28T05:54:17;94104.47;;;0.70;100.00
9774;BME280;4926;42.670;23.316;2023-01-28T05:56:44;94102.97;;;0.74;100.00
9774;BME280;4926;42.670;23.316;2023-01-28T05:59:12;94100.25;;;0.69;100.00
9774;BME280;4926;42.670;23.316;2023-01-28T06:01:38;94109.94;;;0.69;100.00
9774;BME280;4926;42.670;23.316;2023-01-28T06:04:07;94116.78;;;0.70;100.00
9774;BME280;4926;42.670;23.316;2023-01-28T06:06:36;94123.13;;;0.74;100.00
9774;BME280;4926;42.670;23.316;2023-01-28T06:09:03;94127.00;;;0.71;100.00
9774;BME280;4926;42.670;23.316;2023-01-28T06:11:30;94122.88;;;0.75;100.00
9774;BME280;4926;42.670;23.316;2023-01-28T06:13:59;94132.25;;;0.71;100.00
9774;BME280;4926;42.670;23.316;2023-01-28T06:16:28;94139.06;;;0.72;100.00
9774;BME280;4926;42.670;23.316;2023-01-28T06:18:56;94140.88;;;0.72;100.00
9774;BME280;4926;42.670;23.316;2023-01-28T06:21:24;94153.84;;;0.78;100.00
9774;BME280;4926;42.670;23.316;2023-01-28T06:23:53;94150.09;;;0.74;100.00
9774;BME280;4926;42.670;23.316;2023-01-28T06:26:20;94154.16;;;0.82;100.00
9774;BME280;4926;42.670;23.316;2023-01-28T06:28:48;94156.00;;;0.81;100.00
9774;BME280;4926;42.670;23.316;2023-01-28T06:31:18;94159.41;;;0.82;100.00
9774;BME280;4926;42.670;23.316;2023-01-28T06:33:44;94162.81;;;0.82;100.00
9774;BME280;4926;42.670;23.316;2023-01-28T06:36:11;94163.38;;;0.84;100.00
9774;BME280;4926;42.670;23.316;2023-01-28T06:38:39;94167.72;;;0.79;100.00
9774;BME280;4926;42.670;23.316;2023-01-28T06:41:09;94162.91;;;0.87;100.00
9774;BME280;4926;42.670;23.316;2023-01-28T06:43:35;94172.34;;;0.88;100.00
9774;BME280;4926;42.670;23.316;2023-01-28T06:46:05;94178.06;;;1.02;100.00
9774;BME280;4926;42.670;23.316;2023-01-28T06:48:31;94180.13;;;1.00;100.00
9774;BME280;4926;42.670;23.316;2023-01-28T06:51:01;94181.69;;;0.84;100.00
9774;BME280;4926;42.670;23.316;2023-01-28T06:53:29;94197.91;;;0.81;100.00
9774;BME280;4926;42.670;23.316;2023-01-28T06:55:57;94187.59;;;0.91;100.00
9774;BME280;4926;42.670;23.316;2023-01-28T06:58:27;94201.72;;;0.90;100.00
9774;BME280;4926;42.670;23.316;2023-01-28T07:00:57;94198.22;;;0.85;100.00
9774;BME280;4926;42.670;23.316;2023-01-28T07:03:27;94199.63;;;0.76;100.00
9774;BME280;4926;42.670;23.316;2023-01-28T07:05:54;94198.66;;;0.65;100.00
9774;BME280;4926;42.670;23.316;2023-01-28T07:08:21;94198.56;;;0.60;100.00
9774;BME280;4926;42.670;23.316;2023-01-28T07:10:47;94204.94;;;0.64;100.00
9774;BME280;4926;42.670;23.316;2023-01-28T07:13:16;94213.47;;;0.60;100.00
9774;BME280;4926;42.670;23.316;2023-01-28T07:15:45;94204.69;;;0.66;100.00
9774;BME280;4926;42.670;23.316;2023-01-28T07:18:18;94218.13;;;0.69;100.00
9774;BME280;4926;42.670;23.316;2023-01-28T07:20:44;94216.06;;;0.71;100.00
9774;BME280;4926;42.670;23.316;2023-01-28T07:23:11;94217.31;;;0.69;100.00
9774;BME280;4926;42.670;23.316;2023-01-28T07:25:40;94218.69;;;0.71;100.00
9774;BME280;4926;42.670;23.316;2023-01-28T07:28:07;94229.81;;;0.78;100.00
9774;BME280;4926;42.670;23.316;2023-01-28T07:30:35;94224.56;;;0.78;100.00
9774;BME280;4926;42.670;23.316;2023-01-28T07:33:02;94233.31;;;0.84;100.00
9774;BME280;4926;42.670;23.316;2023-01-28T07:35:30;94228.19;;;0.77;100.00
9774;BME280;4926;42.670;23.316;2023-01-28T07:38:00;94227.59;;;0.87;100.00
9774;BME280;4926;42.670;23.316;2023-01-28T07:40:27;94241.78;;;0.74;100.00
9774;BME280;4926;42.670;23.316;2023-01-28T07:42:54;94240.00;;;0.91;100.00
9774;BME280;4926;42.670;23.316;2023-01-28T07:45:24;94240.31;;;0.95;100.00
9774;BME280;4926;42.670;23.316;2023-01-28T07:47:56;94250.56;;;0.96;100.00
9774;BME280;4926;42.670;23.316;2023-01-28T07:50:24;94244.53;;;0.96;100.00
9774;BME280;4926;42.670;23.316;2023-01-28T07:52:53;94249.31;;;0.99;100.00
9774;BME280;4926;42.670;23.316;2023-01-28T07:55:20;94243.91;;;1.05;100.00
9774;BME280;4926;42.670;23.316;2023-01-28T07:57:51;94255.09;;;1.01;100.00
9774;BME280;4926;42.670;23.316;2023-01-28T08:00:19;94259.47;;;1.12;100.00
9774;BME280;4926;42.670;23.316;2023-01-28T08:02:49;94253.69;;;1.10;100.00
9774;BME280;4926;42.670;23.316;2023-01-28T08:05:18;94258.13;;;1.09;100.00
9774;BME280;4926;42.670;23.316;2023-01-28T08:07:46;94264.31;;;1.03;100.00
9774;BME280;4926;42.670;23.316;2023-01-28T08:10:14;94265.09;;;1.04;100.00
9774;BME280;4926;42.670;23.316;2023-01-28T08:12:50;94266.47;;;1.06;100.00
9774;BME280;4926;42.670;23.316;2023-01-28T08:15:16;94264.97;;;1.10;100.00
9774;BME280;4926;42.670;23.316;2023-01-28T08:17:43;94262.91;;;1.12;100.00
9774;BME280;4926;42.670;23.316;2023-01-28T08:20:12;94272.44;;;1.19;100.00
9774;BME280;4926;42.670;23.316;2023-01-28T08:22:40;94266.50;;;1.23;100.00
9774;BME280;4926;42.670;23.316;2023-01-28T08:25:10;94278.94;;;1.16;100.00
9774;BME280;4926;42.670;23.316;2023-01-28T08:27:36;94270.53;;;1.14;100.00
9774;BME280;4926;42.670;23.316;2023-01-28T08:30:04;94275.31;;;1.17;100.00
9774;BME280;4926;42.670;23.316;2023-01-28T08:32:31;94273.56;;;1.23;100.00
9774;BME280;4926;42.670;23.316;2023-01-28T08:35:01;94273.44;;;1.29;100.00
9774;BME280;4926;42.670;23.316;2023-01-28T08:37:30;94269.44;;;1.27;100.00
9774;BME280;4926;42.670;23.316;2023-01-28T08:39:59;94276.94;;;1.35;100.00
9774;BME280;4926;42.670;23.316;2023-01-28T08:42:26;94279.22;;;1.48;100.00
9774;BME280;4926;42.670;23.316;2023-01-28T08:44:52;94276.00;;;1.57;100.00
9774;BME280;4926;42.670;23.316;2023-01-28T08:47:19;94277.72;;;1.68;100.00
9774;BME280;4926;42.670;23.316;2023-01-28T08:49:46;94277.97;;;1.67;100.00
9774;BME280;4926;42.670;23.316;2023-01-28T08:52:15;94277.09;;;1.61;100.00
9774;BME280;4926;42.670;23.316;2023-01-28T08:54:42;94270.59;;;1.64;100.00
9774;BME280;4926;42.670;23.316;2023-01-28T08:57:10;94281.06;;;1.80;100.00
9774;BME280;4926;42.670;23.316;2023-01-28T08:59:37;94282.34;;;1.78;100.00
9774;BME280;4926;42.670;23.316;2023-01-28T09:02:11;94286.72;;;1.72;100.00
9774;BME280;4926;42.670;23.316;2023-01-28T09:04:50;94282.34;;;1.78;100.00
9774;BME280;4926;42.670;23.316;2023-01-28T09:07:17;94275.97;;;1.74;100.00
9774;BME280;4926;42.670;23.316;2023-01-28T09:09:43;94283.13;;;1.62;100.00
9774;BME280;4926;42.670;23.316;2023-01-28T09:12:11;94290.38;;;1.71;100.00
9774;BME280;4926;42.670;23.316;2023-01-28T09:14:39;94283.78;;;1.69;100.00
9774;BME280;4926;42.670;23.316;2023-01-28T09:17:05;94287.59;;;1.78;100.00
9774;BME280;4926;42.670;23.316;2023-01-28T09:19:34;94290.44;;;1.60;100.00
9774;BME280;4926;42.670;23.316;2023-01-28T09:22:02;94294.72;;;1.49;100.00
9774;BME280;4926;42.670;23.316;2023-01-28T09:24:29;94290.44;;;1.43;100.00
9774;BME280;4926;42.670;23.316;2023-01-28T09:26:56;94293.31;;;1.42;100.00
9774;BME280;4926;42.670;23.316;2023-01-28T09:29:26;94285.50;;;1.30;100.00
9774;BME280;4926;42.670;23.316;2023-01-28T09:31:55;94279.19;;;1.14;100.00
9774;BME280;4926;42.670;23.316;2023-01-28T09:34:28;94292.38;;;1.20;100.00
9774;BME280;4926;42.670;23.316;2023-01-28T09:36:55;94289.84;;;1.25;100.00
9774;BME280;4926;42.670;23.316;2023-01-28T09:39:25;94287.41;;;1.35;100.00
9774;BME280;4926;42.670;23.316;2023-01-28T09:41:58;94297.91;;;1.35;100.00
9774;BME280;4926;42.670;23.316;2023-01-28T09:44:40;94292.19;;;1.38;100.00
9774;BME280;4926;42.670;23.316;2023-01-28T09:47:17;94220.72;;;0.97;100.00
9774;BME280;4926;42.670;23.316;2023-01-28T09:49:49;94279.72;;;1.45;100.00
9774;BME280;4926;42.670;23.316;2023-01-28T09:52:18;94280.41;;;1.40;100.00
9774;BME280;4926;42.670;23.316;2023-01-28T09:54:49;94272.00;;;1.38;100.00
9774;BME280;4926;42.670;23.316;2023-01-28T09:57:20;94293.19;;;1.37;100.00
9774;BME280;4926;42.670;23.316;2023-01-28T09:59:50;94292.56;;;1.30;100.00
9774;BME280;4926;42.670;23.316;2023-01-28T10:02:29;94277.53;;;1.25;100.00
9774;BME280;4926;42.670;23.316;2023-01-28T10:05:06;94297.34;;;1.33;100.00
9774;BME280;4926;42.670;23.316;2023-01-28T10:07:42;94287.63;;;1.33;100.00
9774;BME280;4926;42.670;23.316;2023-01-28T10:10:15;94278.34;;;1.26;100.00
9774;BME280;4926;42.670;23.316;2023-01-28T10:12:57;94273.94;;;1.14;100.00
9774;BME280;4926;42.670;23.316;2023-01-28T10:15:57;94279.66;;;1.11;100.00
9774;BME280;4926;42.670;23.316;2023-01-28T10:18:31;94279.75;;;1.17;100.00
9774;BME280;4926;42.670;23.316;2023-01-28T10:21:05;94274.84;;;1.20;100.00
9774;BME280;4926;42.670;23.316;2023-01-28T10:23:40;94280.78;;;1.15;100.00
9774;BME280;4926;42.670;23.316;2023-01-28T10:26:15;94283.03;;;1.24;100.00
9774;BME280;4926;42.670;23.316;2023-01-28T10:28:51;94280.47;;;1.29;100.00
9774;BME280;4926;42.670;23.316;2023-01-28T10:31:29;94272.47;;;1.35;100.00
9774;BME280;4926;42.670;23.316;2023-01-28T10:33:58;94270.56;;;1.31;100.00
9774;BME280;4926;42.670;23.316;2023-01-28T10:36:28;94275.25;;;1.29;100.00
9774;BME280;4926;42.670;23.316;2023-01-28T10:38:54;94266.25;;;1.25;100.00
9774;BME280;4926;42.670;23.316;2023-01-28T10:41:24;94279.19;;;1.14;100.00
9774;BME280;4926;42.670;23.316;2023-01-28T10:43:53;94279.66;;;1.11;100.00
9774;BME280;4926;42.670;23.316;2023-01-28T10:46:25;94272.53;;;1.24;100.00
9774;BME280;4926;42.670;23.316;2023-01-28T10:49:00;94272.13;;;1.32;100.00
9774;BME280;4926;42.670;23.316;2023-01-28T10:51:32;94269.22;;;1.45;100.00
9774;BME280;4926;42.670;23.316;2023-01-28T10:53:59;94269.63;;;1.53;100.00
9774;BME280;4926;42.670;23.316;2023-01-28T10:56:28;94278.75;;;1.51;100.00
9774;BME280;4926;42.670;23.316;2023-01-28T10:59:01;94272.00;;;1.38;100.00
9774;BME280;4926;42.670;23.316;2023-01-28T11:01:48;94270.81;;;1.46;100.00
9774;BME280;4926;42.670;23.316;2023-01-28T11:04:18;94271.22;;;1.71;100.00
9774;BME280;4926;42.670;23.316;2023-01-28T11:06:58;94270.25;;;1.77;100.00
9774;BME280;4926;42.670;23.316;2023-01-28T11:09:28;94275.03;;;1.80;100.00
9774;BME280;4926;42.670;23.316;2023-01-28T11:11:55;94275.66;;;1.87;100.00
9774;BME280;4926;42.670;23.316;2023-01-28T11:14:25;94262.47;;;1.82;100.00
9774;BME280;4926;42.670;23.316;2023-01-28T11:16:55;94271.75;;;1.89;100.00
9774;BME280;4926;42.670;23.316;2023-01-28T11:19:30;94268.03;;;1.85;100.00
9774;BME280;4926;42.670;23.316;2023-01-28T11:21:59;94265.09;;;1.82;100.00
9774;BME280;4926;42.670;23.316;2023-01-28T11:24:32;94259.19;;;1.91;100.00
9774;BME280;4926;42.670;23.316;2023-01-28T11:27:10;94269.69;;;1.91;100.00
9774;BME280;4926;42.670;23.316;2023-01-28T11:29:40;94268.44;;;1.94;100.00
9774;BME280;4926;42.670;23.316;2023-01-28T11:32:17;94263.50;;;1.97;100.00
9774;BME280;4926;42.670;23.316;2023-01-28T11:34:49;94264.81;;;2.00;100.00
9774;BME280;4926;42.670;23.316;2023-01-28T11:37:16;94267.06;;;2.08;100.00
9774;BME280;4926;42.670;23.316;2023-01-28T11:39:43;94266.63;;;2.16;99.98
9774;BME280;4926;42.670;23.316;2023-01-28T11:42:12;94257.25;;;2.20;100.00
9774;BME280;4926;42.670;23.316;2023-01-28T11:44:41;94260.00;;;2.30;98.99
9774;BME280;4926;42.670;23.316;2023-01-28T11:47:39;94264.00;;;2.16;97.42
9774;BME280;4926;42.670;23.316;2023-01-28T11:50:32;94261.44;;;2.21;97.48
9774;BME280;4926;42.670;23.316;2023-01-28T11:53:19;94265.19;;;2.25;95.61
9774;BME280;4926;42.670;23.316;2023-01-28T11:56:20;94271.00;;;2.10;95.76
9774;BME280;4926;42.670;23.316;2023-01-28T11:58:58;94255.56;;;2.14;97.15
9774;BME280;4926;42.670;23.316;2023-01-28T12:01:38;94251.19;;;2.19;95.41
9774;BME280;4926;42.670;23.316;2023-01-28T12:04:39;94262.50;;;2.03;94.85
9774;BME280;4926;42.670;23.316;2023-01-28T12:07:29;94264.19;;;2.09;95.78
9774;BME280;4926;42.670;23.316;2023-01-28T12:10:09;94268.75;;;2.19;95.76
9774;BME280;4926;42.670;23.316;2023-01-28T12:12:58;94269.06;;;2.22;95.91
9774;BME280;4926;42.670;23.316;2023-01-28T12:15:46;94263.19;;;2.32;95.41
9774;BME280;4926;42.670;23.316;2023-01-28T12:18:38;94265.44;;;2.23;93.59
9774;BME280;4926;42.670;23.316;2023-01-28T12:21:16;94254.94;;;2.23;93.79
9774;BME280;4926;42.670;23.316;2023-01-28T12:24:00;94263.97;;;2.33;94.06
9774;BME280;4926;42.670;23.316;2023-01-28T12:26:38;94262.34;;;2.48;94.51
9774;BME280;4926;42.670;23.316;2023-01-28T12:29:19;94262.09;;;2.50;94.29
9774;BME280;4926;42.670;23.316;2023-01-28T12:32:01;94261.72;;;2.41;93.74
9774;BME280;4926;42.670;23.316;2023-01-28T12:35:00;94270.16;;;2.43;94.17
9774;BME280;4926;42.670;23.316;2023-01-28T12:37:47;94274.31;;;2.39;93.61
9774;BME280;4926;42.670;23.316;2023-01-28T12:40:37;94261.63;;;2.14;93.23
9774;BME280;4926;42.670;23.316;2023-01-28T12:43:10;94275.19;;;2.28;94.75
9774;BME280;4926;42.670;23.316;2023-01-28T12:45:40;94278.00;;;2.21;93.94
9774;BME280;4926;42.670;23.316;2023-01-28T12:48:23;94280.19;;;2.08;94.95
9774;BME280;4926;42.670;23.316;2023-01-28T12:50:57;94280.94;;;2.08;96.63
9774;BME280;4926;42.670;23.316;2023-01-28T12:53:36;94287.84;;;2.31;97.07
9774;BME280;4926;42.670;23.316;2023-01-28T12:56:14;94291.00;;;2.33;96.82
9774;BME280;4926;42.670;23.316;2023-01-28T12:58:50;94294.13;;;2.30;96.34
9774;BME280;4926;42.670;23.316;2023-01-28T13:01:27;94287.84;;;2.31;96.40
9774;BME280;4926;42.670;23.316;2023-01-28T13:03:59;94286.88;;;2.37;97.35
9774;BME280;4926;42.670;23.316;2023-01-28T13:06:37;94288.31;;;2.28;95.65
9774;BME280;4926;42.670;23.316;2023-01-28T13:09:13;94289.63;;;2.25;95.71
9774;BME280;4926;42.670;23.316;2023-01-28T13:11:42;94295.66;;;2.26;96.10
9774;BME280;4926;42.670;23.316;2023-01-28T13:14:11;94300.19;;;2.14;95.96
9774;BME280;4926;42.670;23.316;2023-01-28T13:16:38;94306.22;;;2.31;97.26
9774;BME280;4926;42.670;23.316;2023-01-28T13:19:19;94301.59;;;2.38;96.42
9774;BME280;4926;42.670;23.316;2023-01-28T13:21:50;94296.13;;;2.40;96.00
9774;BME280;4926;42.670;23.316;2023-01-28T13:24:31;94306.56;;;2.56;94.72
9774;BME280;4926;42.670;23.316;2023-01-28T13:27:10;94313.19;;;2.42;94.56
9774;BME280;4926;42.670;23.316;2023-01-28T13:29:40;94303.25;;;2.44;94.82
9774;BME280;4926;42.670;23.316;2023-01-28T13:32:30;94307.63;;;2.55;95.46
9774;BME280;4926;42.670;23.316;2023-01-28T13:34:58;94314.38;;;2.51;95.24
9774;BME280;4926;42.670;23.316;2023-01-28T13:37:30;94318.88;;;2.34;95.81
9774;BME280;4926;42.670;23.316;2023-01-28T13:40:06;94320.41;;;2.30;96.11
9774;BME280;4926;42.670;23.316;2023-01-28T13:42:34;94310.94;;;2.29;96.65
9774;BME280;4926;42.670;23.316;2023-01-28T13:45:20;94329.53;;;2.27;96.85